createdAt,value
2019-04-07T00:00:12.236Z,20.1
2019-04-07T00:01:02.147Z,20.1
2019-04-07T00:01:50.382Z,20.2
2019-04-07T00:02:40.774Z,20.2
2019-04-07T00:03:30.528Z,20.2
2019-04-07T00:04:19.370Z,20.2
2019-04-07T00:05:23.497Z,20.1
2019-04-07T00:05:58.985Z,20.2
2019-04-07T00:06:49.764Z,20.2
2019-04-07T00:07:42.326Z,20.2
2019-04-07T00:08:31.760Z,20.2
2019-04-07T00:09:22.046Z,20.2
2019-04-07T00:10:08.888Z,20.2
2019-04-07T00:10:59.387Z,20.2
2019-04-07T00:11:51.903Z,20.2
2019-04-07T00:12:39.948Z,20.1
2019-04-07T00:13:30.937Z,20.2
2019-04-07T00:14:19.728Z,20.2
2019-04-07T00:15:12.784Z,20.1
2019-04-07T00:16:01.267Z,20.1
2019-04-07T00:16:50.521Z,20.2
2019-04-07T00:17:39.735Z,20.2
2019-04-07T00:18:31.257Z,20.2
2019-04-07T00:19:21.922Z,20.1
2019-04-07T00:20:12.455Z,20.1
2019-04-07T00:21:02.433Z,20.1
2019-04-07T00:21:51.107Z,20.1
2019-04-07T00:22:41.112Z,20.2
2019-04-07T00:23:30.779Z,20.2
2019-04-07T00:24:20.925Z,20.2
2019-04-07T00:25:10.508Z,20.2
2019-04-07T00:26:02.140Z,20.2
2019-04-07T00:26:50.219Z,20.2
2019-04-07T00:27:41.159Z,20.2
2019-04-07T00:28:29.981Z,20.2
2019-04-07T00:29:20.718Z,20.2
2019-04-07T00:30:11.472Z,20.2
2019-04-07T00:31:00.573Z,20.2
2019-04-07T00:31:50.982Z,20.2
2019-04-07T00:32:40.174Z,20.2
2019-04-07T00:33:33.927Z,20.2
2019-04-07T00:34:23.792Z,20.1
2019-04-07T00:35:34.806Z,20.2
2019-04-07T00:36:04.706Z,20.2
2019-04-07T00:36:52.156Z,20.2
2019-04-07T00:37:43.806Z,20.2
2019-04-07T00:38:33.576Z,20.2
2019-04-07T00:39:24.253Z,20.2
2019-04-07T00:40:14.906Z,20.2
2019-04-07T00:41:04.540Z,20.2
2019-04-07T00:41:53.940Z,20.1
2019-04-07T00:42:43.421Z,20.2
2019-04-07T00:43:34.181Z,20.2
2019-04-07T00:44:25.660Z,20.2
2019-04-07T00:45:13.081Z,20.2
2019-04-07T00:46:04.578Z,20.2
2019-04-07T00:46:55.621Z,20.2
2019-04-07T00:47:46.094Z,20.2
2019-04-07T00:48:34.262Z,20.1
2019-04-07T00:49:22.729Z,20.2
2019-04-07T00:50:16.153Z,20.2
2019-04-07T00:51:03.510Z,20.2
2019-04-07T00:51:55.802Z,20.2
2019-04-07T00:52:45.339Z,20.2
2019-04-07T00:53:34.273Z,20.2
2019-04-07T00:54:25.870Z,20.2
2019-04-07T00:55:15.360Z,20.2
2019-04-07T00:56:05.565Z,20.2
2019-04-07T00:56:52.801Z,20.2
2019-04-07T00:57:44.935Z,20.1
2019-04-07T00:58:35.896Z,20.2
2019-04-07T00:59:25.666Z,20.2
2019-04-07T01:00:16.355Z,20.2
2019-04-07T01:01:04.204Z,20.2
2019-04-07T01:01:55.698Z,20.2
2019-04-07T01:02:46.532Z,20.2
2019-04-07T01:03:35.380Z,20.2
2019-04-07T01:04:25.317Z,20.2
2019-04-07T01:05:14.692Z,20.2
2019-04-07T01:06:04.557Z,20.2
2019-04-07T01:06:54.846Z,20.2
2019-04-07T01:07:47.314Z,20.2
2019-04-07T01:08:37.225Z,20.2
2019-04-07T01:09:25.512Z,20.2
2019-04-07T01:10:16.238Z,20.2
2019-04-07T01:11:04.593Z,20.2
2019-04-07T01:11:57.379Z,20.2
2019-04-07T01:12:46.264Z,20.2
2019-04-07T01:13:36.254Z,20.2
2019-04-07T01:14:24.748Z,20.2
2019-04-07T01:15:16.124Z,20.2
2019-04-07T01:16:05.389Z,20.2
2019-04-07T01:16:55.984Z,20.2
2019-04-07T01:17:46.544Z,20.2
2019-04-07T01:18:37.921Z,20.2
2019-04-07T01:19:27.808Z,20.2
2019-04-07T01:20:16.761Z,20.2
2019-04-07T01:21:05.843Z,20.2
2019-04-07T01:21:56.732Z,20.2
2019-04-07T01:22:47.337Z,20.2
2019-04-07T01:23:36.378Z,20.2
2019-04-07T01:24:28.644Z,20.2
2019-04-07T01:25:16.482Z,20.2
2019-04-07T01:26:04.863Z,20.2
2019-04-07T01:26:56.726Z,20.2
2019-04-07T01:27:47.139Z,20.2
2019-04-07T01:28:35.336Z,20.2
2019-04-07T01:29:26.632Z,20.2
2019-04-07T01:30:18.348Z,20.2
2019-04-07T01:31:05.748Z,20.2
2019-04-07T01:31:56.958Z,20.2
2019-04-07T01:32:45.780Z,20.2
2019-04-07T01:33:36.640Z,20.2
2019-04-07T01:34:28.181Z,20.2
2019-04-07T01:35:19.132Z,20.2
2019-04-07T01:36:07.271Z,20.2
2019-04-07T01:36:56.766Z,20.2
2019-04-07T01:37:48.710Z,20.2
2019-04-07T01:38:38.357Z,20.2
2019-04-07T01:39:27.285Z,20.2
2019-04-07T01:40:18.400Z,20.2
2019-04-07T01:41:09.005Z,20.2
2019-04-07T01:41:58.348Z,20.2
2019-04-07T01:42:47.653Z,20.2
2019-04-07T01:43:38.191Z,20.2
2019-04-07T01:44:29.736Z,20.2
2019-04-07T01:45:19.535Z,20.2
2019-04-07T01:46:07.825Z,20.2
2019-04-07T01:46:55.956Z,20.2
2019-04-07T01:47:46.410Z,20.2
2019-04-07T01:48:37.855Z,20.2
2019-04-07T01:49:27.227Z,20.2
2019-04-07T01:50:19.540Z,20.2
2019-04-07T01:51:07.144Z,20.2
2019-04-07T01:51:58.102Z,20.2
2019-04-07T01:52:48.023Z,20.2
2019-04-07T01:53:37.864Z,20.2
2019-04-07T01:54:29.791Z,20.2
2019-04-07T01:55:18.065Z,20.2
2019-04-07T01:56:08.598Z,20.2
2019-04-07T01:56:57.079Z,20.2
2019-04-07T01:57:50.622Z,20.2
2019-04-07T01:58:40.704Z,20.2
2019-04-07T01:59:29.983Z,20.3
2019-04-07T02:00:18.377Z,20.2
2019-04-07T02:01:08.686Z,20.2
2019-04-07T02:02:01.320Z,20.2
2019-04-07T02:02:49.832Z,20.2
2019-04-07T02:03:41.767Z,20.2
2019-04-07T02:04:29.752Z,20.2
2019-04-07T02:05:18.976Z,20.2
2019-04-07T02:06:12.422Z,20.2
2019-04-07T02:06:59.608Z,20.2
2019-04-07T02:07:49.946Z,20.2
2019-04-07T02:08:40.233Z,20.2
2019-04-07T02:09:32.445Z,20.2
2019-04-07T02:10:20.842Z,20.2
2019-04-07T02:11:09.389Z,20.2
2019-04-07T02:12:00.549Z,20.2
2019-04-07T02:12:51.831Z,20.2
2019-04-07T02:13:41.923Z,20.3
2019-04-07T02:14:31.231Z,20.3
2019-04-07T02:15:20.531Z,20.2
2019-04-07T02:16:09.183Z,20.3
2019-04-07T02:17:02.343Z,20.3
2019-04-07T02:17:51.537Z,20.2
2019-04-07T02:18:41.068Z,20.2
2019-04-07T02:19:31.592Z,20.2
2019-04-07T02:20:22.081Z,20.3
2019-04-07T02:21:13.015Z,20.2
2019-04-07T02:22:00.830Z,20.2
2019-04-07T02:22:50.850Z,20.2
2019-04-07T02:23:40.499Z,20.3
2019-04-07T02:24:33.397Z,20.3
2019-04-07T02:25:22.410Z,20.2
2019-04-07T02:26:11.366Z,20.3
2019-04-07T02:27:00.875Z,20.3
2019-04-07T02:27:52.633Z,20.3
2019-04-07T02:28:41.052Z,20.3
2019-04-07T02:29:32.315Z,20.2
2019-04-07T02:30:24.381Z,20.2
2019-04-07T02:31:11.795Z,20.3
2019-04-07T02:32:04.078Z,20.2
2019-04-07T02:32:55.923Z,20.3
2019-04-07T02:33:43.731Z,20.3
2019-04-07T02:34:32.255Z,20.3
2019-04-07T02:35:23.422Z,20.2
2019-04-07T02:36:41.918Z,20.2
2019-04-07T02:37:05.200Z,20.2
2019-04-07T02:37:53.425Z,20.3
2019-04-07T02:38:42.919Z,20.2
2019-04-07T02:39:34.334Z,20.2
2019-04-07T02:40:23.966Z,20.2
2019-04-07T02:41:14.374Z,20.3
2019-04-07T02:42:02.665Z,20.3
2019-04-07T02:42:53.042Z,20.2
2019-04-07T02:43:41.057Z,20.3
2019-04-07T02:44:35.069Z,20.3
2019-04-07T02:45:24.655Z,20.3
2019-04-07T02:46:13.724Z,20.3
2019-04-07T02:47:03.574Z,20.3
2019-04-07T02:47:53.504Z,20.3
2019-04-07T02:48:43.207Z,20.3
2019-04-07T02:49:35.578Z,20.3
2019-04-07T02:50:24.013Z,20.3
2019-04-07T02:51:12.948Z,20.2
2019-04-07T02:52:01.684Z,20.3
2019-04-07T02:52:57.142Z,20.3
2019-04-07T02:53:46.946Z,20.3
2019-04-07T02:54:32.822Z,20.3
2019-04-07T02:55:22.527Z,20.3
2019-04-07T02:56:15.100Z,20.3
2019-04-07T02:57:04.189Z,20.3
2019-04-07T02:57:54.655Z,20.3
2019-04-07T02:58:42.576Z,20.3
2019-04-07T02:59:34.175Z,20.2
2019-04-07T03:00:26.075Z,20.3
2019-04-07T03:01:14.792Z,20.3
2019-04-07T03:02:04.683Z,20.3
2019-04-07T03:02:56.357Z,20.3
2019-04-07T03:03:46.984Z,20.3
2019-04-07T03:07:30.090Z,20.3
2019-04-07T03:08:05.713Z,20.3
2019-04-07T03:08:57.140Z,20.3
2019-04-07T03:09:58.789Z,20.3
2019-04-07T03:10:35.101Z,20.3
2019-04-07T03:11:29.060Z,20.3
2019-04-07T03:12:14.226Z,20.3
2019-04-07T03:13:09.163Z,20.3
2019-04-07T03:13:56.146Z,20.3
2019-04-07T03:14:45.844Z,20.3
2019-04-07T03:15:35.076Z,20.3
2019-04-07T03:16:26.594Z,20.3
2019-04-07T03:17:16.386Z,20.3
2019-04-07T03:18:05.338Z,20.3
2019-04-07T03:18:55.674Z,20.3
2019-04-07T03:19:46.708Z,20.3
2019-04-07T03:20:37.814Z,20.3
2019-04-07T03:21:27.175Z,20.3
2019-04-07T03:22:16.800Z,20.3
2019-04-07T03:23:08.012Z,20.3
2019-04-07T03:23:58.361Z,20.3
2019-04-07T03:24:46.126Z,20.3
2019-04-07T03:25:38.633Z,20.3
2019-04-07T03:26:27.732Z,20.3
2019-04-07T03:27:17.686Z,20.3
2019-04-07T03:28:08.689Z,20.3
2019-04-07T03:28:58.912Z,20.3
2019-04-07T03:30:06.748Z,20.3
2019-04-07T03:31:07.044Z,20.3
2019-04-07T03:32:00.540Z,20.3
2019-04-07T03:33:28.303Z,20.3
2019-04-07T03:34:41.992Z,20.3
2019-04-07T03:35:50.812Z,20.3
2019-04-07T03:37:55.541Z,20.3
2019-04-07T03:38:14.997Z,20.3
2019-04-07T03:39:04.900Z,20.3
2019-04-07T03:40:09.600Z,20.3
2019-04-07T03:40:44.176Z,20.3
2019-04-07T03:41:49.122Z,20.3
2019-04-07T03:42:23.136Z,20.3
2019-04-07T03:43:13.417Z,20.3
2019-04-07T03:44:09.249Z,20.3
2019-04-07T03:44:54.157Z,20.3
2019-04-07T03:45:43.460Z,20.3
2019-04-07T03:46:35.127Z,20.3
2019-04-07T03:47:26.428Z,20.3
2019-04-07T03:48:16.260Z,20.3
2019-04-07T03:49:04.233Z,20.3
2019-04-07T03:49:54.992Z,20.3
2019-04-07T03:50:44.962Z,20.3
2019-04-07T03:51:34.414Z,20.3
2019-04-07T03:52:28.566Z,20.3
2019-04-07T03:53:13.975Z,20.3
2019-04-07T03:54:04.406Z,20.3
2019-04-07T03:54:54.754Z,20.3
2019-04-07T03:56:00.394Z,20.3
2019-04-07T03:56:35.800Z,20.3
2019-04-07T03:57:24.732Z,20.3
2019-04-07T03:58:18.008Z,20.3
2019-04-07T03:59:05.547Z,20.3
2019-04-07T03:59:55.430Z,20.3
2019-04-07T04:00:46.051Z,20.3
2019-04-07T04:01:38.371Z,20.3
2019-04-07T04:02:26.399Z,20.3
2019-04-07T04:03:17.492Z,20.3
2019-04-07T04:04:06.016Z,20.3
2019-04-07T04:04:55.538Z,20.3
2019-04-07T04:05:46.122Z,20.3
2019-04-07T04:06:37.066Z,20.3
2019-04-07T04:07:47.211Z,20.3
2019-04-07T04:08:15.850Z,20.3
2019-04-07T04:09:05.894Z,20.3
2019-04-07T04:09:55.831Z,20.3
2019-04-07T04:10:46.760Z,20.3
2019-04-07T04:11:36.493Z,20.3
2019-04-07T04:12:26.202Z,20.3
2019-04-07T04:13:17.493Z,20.3
2019-04-07T04:14:06.090Z,20.3
2019-04-07T04:14:56.782Z,20.3
2019-04-07T04:15:48.270Z,20.3
2019-04-07T04:16:36.267Z,20.3
2019-04-07T04:17:28.299Z,20.3
2019-04-07T04:18:16.673Z,20.3
2019-04-07T04:19:09.803Z,20.3
2019-04-07T04:19:56.094Z,20.3
2019-04-07T04:20:46.988Z,20.3
2019-04-07T04:21:38.170Z,20.3
2019-04-07T04:22:28.912Z,20.3
2019-04-07T04:23:20.143Z,20.3
2019-04-07T04:24:09.792Z,20.3
2019-04-07T04:24:58.241Z,20.3
2019-04-07T04:25:50.355Z,20.3
2019-04-07T04:26:37.764Z,20.3
2019-04-07T04:27:28.106Z,20.3
2019-04-07T04:28:16.829Z,20.3
2019-04-07T04:29:10.562Z,20.3
2019-04-07T04:30:02.859Z,20.3
2019-04-07T04:30:48.331Z,20.3
2019-04-07T04:31:37.070Z,20.3
2019-04-07T04:32:28.471Z,20.3
2019-04-07T04:33:15.902Z,20.3
2019-04-07T04:34:07.750Z,20.3
2019-04-07T04:34:59.254Z,20.3
2019-04-07T04:35:49.127Z,20.3
2019-04-07T04:36:54.948Z,20.3
2019-04-07T04:38:00.504Z,20.3
2019-04-07T04:38:20.058Z,20.3
2019-04-07T04:39:10.632Z,20.3
2019-04-07T04:40:02.055Z,20.3
2019-04-07T04:40:50.564Z,20.3
2019-04-07T04:41:41.051Z,20.3
2019-04-07T04:42:31.583Z,20.3
2019-04-07T04:43:20.993Z,20.3
2019-04-07T04:44:10.673Z,20.3
2019-04-07T04:45:02.373Z,20.3
2019-04-07T04:45:50.372Z,20.3
2019-04-07T04:46:42.656Z,20.3
2019-04-07T04:47:29.645Z,20.3
2019-04-07T04:48:20.682Z,20.3
2019-04-07T04:49:10.483Z,20.2
2019-04-07T04:50:00.300Z,20.3
2019-04-07T04:50:52.285Z,20.3
2019-04-07T04:51:47.302Z,20.3
2019-04-07T04:52:30.204Z,20.3
2019-04-07T04:53:19.709Z,20.3
2019-04-07T04:54:12.572Z,20.2
2019-04-07T04:55:01.952Z,20.3
2019-04-07T04:55:51.384Z,20.3
2019-04-07T04:56:40.385Z,20.3
2019-04-07T04:57:31.871Z,20.3
2019-04-07T06:05:17.769Z,20.3
2019-04-07T06:06:06.215Z,20.3
2019-04-07T06:07:03.365Z,20.3
2019-04-07T06:07:46.973Z,20.3
2019-04-07T06:08:55.043Z,20.3
2019-04-07T06:09:35.029Z,20.3
2019-04-07T06:10:15.435Z,20.3
2019-04-07T06:11:09.300Z,20.3
2019-04-07T06:11:56.029Z,20.3
2019-04-07T06:12:53.123Z,20.3
2019-04-07T06:13:37.979Z,20.3
2019-04-07T06:14:27.336Z,20.3
2019-04-07T06:15:23.767Z,20.3
2019-04-07T06:16:05.892Z,20.3
2019-04-07T06:17:00.919Z,20.3
2019-04-07T06:17:47.341Z,20.3
2019-04-07T06:18:42.144Z,20.3
2019-04-07T06:19:26.003Z,20.3
2019-04-07T06:20:22.482Z,20.3
2019-04-07T06:21:07.624Z,20.3
2019-04-07T06:21:55.783Z,20.3
2019-04-07T06:22:55.207Z,20.3
2019-04-07T06:23:39.527Z,20.3
2019-04-07T06:24:37.508Z,20.3
2019-04-07T06:25:18.432Z,20.3
2019-04-07T06:26:15.626Z,20.3
2019-04-07T06:26:56.525Z,20.3
2019-04-07T06:27:54.285Z,20.3
2019-04-07T06:28:35.391Z,20.3
2019-04-07T06:29:31.688Z,20.3
2019-04-07T06:30:17.574Z,20.3
2019-04-07T06:31:10.803Z,20.3
2019-04-07T06:32:02.277Z,20.3
2019-04-07T06:32:50.503Z,20.3
2019-04-07T06:33:43.492Z,20.3
2019-04-07T06:34:26.810Z,20.3
2019-04-07T06:35:22.445Z,20.3
2019-04-07T06:36:06.986Z,20.3
2019-04-07T06:37:04.464Z,20.3
2019-04-07T06:37:47.635Z,20.3
2019-04-07T06:38:58.129Z,20.3
2019-04-07T06:39:29.027Z,20.3
2019-04-07T06:40:24.758Z,20.3
2019-04-07T06:41:10.259Z,20.3
2019-04-07T06:42:01.307Z,20.3
2019-04-07T06:42:51.492Z,20.3
2019-04-07T06:43:42.893Z,20.3
2019-04-07T06:44:30.860Z,20.3
2019-04-07T06:45:24.452Z,20.3
2019-04-07T06:46:08.751Z,20.3
2019-04-07T06:47:06.461Z,20.3
2019-04-07T06:47:46.348Z,20.3
2019-04-07T06:48:42.963Z,20.3
2019-04-07T06:49:32.799Z,20.3
2019-04-07T06:50:23.853Z,20.3
2019-04-07T06:51:10.668Z,20.3
2019-04-07T06:52:05.946Z,20.3
2019-04-07T06:52:48.784Z,20.3
2019-04-07T06:53:36.427Z,20.3
2019-04-07T06:54:31.002Z,20.3
2019-04-07T06:55:16.665Z,20.4
2019-04-07T06:56:12.013Z,20.4
2019-04-07T06:56:58.971Z,20.4
2019-04-07T06:57:49.700Z,20.4
2019-04-07T06:58:46.451Z,20.4
2019-04-07T06:59:29.304Z,20.4
2019-04-07T07:00:26.333Z,20.3
2019-04-07T07:01:11.091Z,20.3
2019-04-07T07:02:02.199Z,20.3
2019-04-07T07:02:50.925Z,20.3
2019-04-07T07:05:28.913Z,20.3
2019-04-07T07:06:10.111Z,20.3
2019-04-07T07:07:14.460Z,20.3
2019-04-07T07:07:58.022Z,20.3
2019-04-07T07:09:03.506Z,20.3
2019-04-07T07:09:40.250Z,20.3
2019-04-07T07:10:47.857Z,20.3
2019-04-07T07:11:45.214Z,20.3
2019-04-07T07:12:04.157Z,20.3
2019-04-07T07:12:53.782Z,20.3
2019-04-07T07:13:58.826Z,20.3
2019-04-07T07:14:56.111Z,20.3
2019-04-07T07:15:43.827Z,20.3
2019-04-07T07:16:28.703Z,20.3
2019-04-07T07:17:23.981Z,20.3
2019-04-07T07:18:11.899Z,20.3
2019-04-07T07:19:06.367Z,20.3
2019-04-07T07:20:07.768Z,20.3
2019-04-07T07:20:40.519Z,20.3
2019-04-07T07:21:35.412Z,20.3
2019-04-07T07:22:23.584Z,20.3
2019-04-07T07:23:20.884Z,20.3
2019-04-07T07:23:58.960Z,20.3
2019-04-07T07:25:06.906Z,20.2
2019-04-07T07:25:42.571Z,20.2
2019-04-07T07:26:37.611Z,20.2
2019-04-07T07:27:19.081Z,20.2
2019-04-07T07:28:12.488Z,20.2
2019-04-07T07:29:17.805Z,20.2
2019-04-07T07:29:58.771Z,20.2
2019-04-07T07:30:37.618Z,20.2
2019-04-07T07:31:48.035Z,20.1
2019-04-07T07:32:19.515Z,20.1
2019-04-07T07:33:15.790Z,20.1
2019-04-07T07:33:58.788Z,20.1
2019-04-07T07:34:49.575Z,20.1
2019-04-07T07:35:36.742Z,20.1
2019-04-07T07:36:31.656Z,20.1
2019-04-07T07:37:20.544Z,20
2019-04-07T07:38:16.425Z,20
2019-04-07T10:06:19.732Z,33.3
2019-04-07T10:07:00.952Z,33.4
2019-04-07T10:07:57.832Z,33.4
2019-04-07T10:08:45.519Z,33.5
2019-04-07T10:09:33.477Z,33.6
2019-04-07T10:10:28.172Z,33.6
2019-04-07T10:11:16.000Z,33.7
2019-04-07T10:12:03.539Z,33.8
2019-04-07T10:12:54.343Z,33.8
2019-04-07T10:13:44.110Z,33.9
2019-04-07T10:14:33.822Z,34
2019-04-07T10:15:25.579Z,34.1
2019-04-07T10:16:19.979Z,34.1
2019-04-07T10:17:03.684Z,34.2
2019-04-07T10:17:54.015Z,34.3
2019-04-07T10:18:43.964Z,34.3
2019-04-07T10:19:37.392Z,34.4
2019-04-07T10:20:31.420Z,34.5
2019-04-07T10:21:14.556Z,34.6
2019-04-07T10:22:08.666Z,34.6
2019-04-07T10:22:56.283Z,34.8
2019-04-07T10:23:45.624Z,34.8
2019-04-07T10:24:37.315Z,34.9
2019-04-07T10:25:31.120Z,35
2019-04-07T10:26:16.690Z,35.1
2019-04-07T10:27:04.780Z,35.2
2019-04-07T10:27:57.156Z,35.3
2019-04-07T10:28:56.055Z,35.4
2019-04-07T10:29:37.536Z,35.7
2019-04-07T10:30:27.735Z,35.9
2019-04-07T10:31:20.968Z,36.2
2019-04-07T10:32:08.904Z,36.4
2019-04-07T10:32:57.403Z,36.5
2019-04-07T10:33:45.970Z,36.6
2019-04-07T10:34:35.105Z,36.7
2019-04-07T10:35:25.552Z,36.8
2019-04-07T10:36:16.978Z,37
2019-04-07T10:37:12.021Z,37.1
2019-04-07T10:38:02.517Z,37.4
2019-04-07T10:38:49.637Z,37.5
2019-04-07T10:39:37.052Z,37.6
2019-04-07T10:40:31.646Z,37.7
2019-04-07T10:41:19.524Z,37.9
2019-04-07T10:42:10.215Z,38.2
2019-04-07T10:43:02.942Z,38.6
2019-04-07T10:43:49.285Z,38.9
2019-04-07T10:44:38.809Z,39.3
2019-04-07T10:45:26.173Z,39.5
2019-04-07T10:46:19.351Z,39.8
2019-04-07T10:47:08.612Z,39.9
2019-04-07T10:48:00.247Z,40.1
2019-04-07T10:48:49.714Z,40.1
2019-04-07T10:49:39.426Z,40.1
2019-04-07T10:50:28.986Z,40.3
2019-04-07T10:51:18.432Z,40.4
2019-04-07T10:52:08.061Z,40.6
2019-04-07T10:53:00.702Z,40.9
2019-04-07T10:53:49.328Z,41.1
2019-04-07T10:54:36.978Z,41.3
2019-04-07T10:55:29.866Z,41.4
2019-04-07T10:56:17.706Z,41.6
2019-04-07T10:57:09.957Z,41.8
2019-04-07T10:58:00.757Z,41.9
2019-04-07T10:58:49.981Z,42.1
2019-04-07T10:59:37.868Z,42.2
2019-04-07T11:00:30.244Z,42.4
2019-04-07T11:01:21.020Z,42.6
2019-04-07T11:02:10.141Z,42.8
2019-04-07T11:03:07.016Z,42.9
2019-04-07T11:03:47.535Z,42.9
2019-04-07T11:04:40.599Z,43
2019-04-07T11:05:30.386Z,43.1
2019-04-07T11:06:23.842Z,43.1
2019-04-07T11:07:11.054Z,43.1
2019-04-07T11:08:00.428Z,43
2019-04-07T11:08:50.228Z,42.9
2019-04-07T11:09:38.476Z,42.9
2019-04-07T11:10:48.460Z,42.9
2019-04-07T11:11:21.379Z,42.8
2019-04-07T11:12:10.973Z,42.9
2019-04-07T11:13:03.652Z,42.9
2019-04-07T11:13:51.614Z,42.9
2019-04-07T11:14:40.436Z,42.9
2019-04-07T11:15:29.554Z,42.9
2019-04-07T11:16:19.482Z,42.9
2019-04-07T11:17:13.038Z,42.9
2019-04-07T11:18:01.122Z,42.9
2019-04-07T11:18:50.877Z,42.9
2019-04-07T11:19:43.473Z,42.9
2019-04-07T11:20:29.916Z,43
2019-04-07T11:21:19.737Z,43
2019-04-07T11:22:11.058Z,43
2019-04-07T11:23:00.916Z,43.1
2019-04-07T11:23:50.582Z,43
2019-04-07T11:24:42.425Z,43
2019-04-07T11:25:30.529Z,43
2019-04-07T11:26:20.823Z,43
2019-04-07T11:27:13.005Z,42.9
2019-04-07T11:28:02.571Z,42.9
2019-04-07T11:28:50.779Z,42.9
2019-04-07T11:29:46.152Z,42.9
2019-04-07T11:30:31.459Z,42.8
2019-04-07T11:31:23.091Z,42.8
2019-04-07T11:32:12.013Z,42.8
2019-04-07T11:33:02.745Z,42.8
2019-04-07T11:33:50.237Z,42.7
2019-04-07T11:34:40.157Z,42.7
2019-04-07T11:35:37.930Z,42.7
2019-04-07T11:36:29.832Z,42.7
2019-04-07T11:37:17.836Z,42.8
2019-04-07T11:38:02.692Z,42.8
2019-04-07T11:38:52.573Z,42.9
2019-04-07T11:39:40.401Z,42.9
2019-04-07T11:40:53.441Z,42.9
2019-04-07T11:41:32.769Z,42.9
2019-04-07T11:42:14.123Z,42.8
2019-04-07T11:43:01.139Z,42.8
2019-04-07T11:43:51.236Z,42.7
2019-04-07T11:44:42.243Z,42.6
2019-04-07T11:45:31.915Z,42.6
2019-04-07T11:46:24.263Z,42.5
2019-04-07T11:47:11.958Z,42.4
2019-04-07T11:48:02.092Z,42.4
2019-04-07T11:48:52.913Z,42.3
2019-04-07T11:49:50.599Z,42.2
2019-04-07T11:50:34.252Z,42.1
2019-04-07T11:51:24.243Z,42.1
2019-04-07T11:52:12.534Z,42
2019-04-07T11:53:03.845Z,41.9
2019-04-07T11:53:53.331Z,41.8
2019-04-07T11:54:44.963Z,41.8
2019-04-07T11:55:36.612Z,41.7
2019-04-07T11:56:23.926Z,41.6
2019-04-07T11:57:14.108Z,41.5
2019-04-07T11:58:41.877Z,41.4
2019-04-07T11:59:01.214Z,41.4
2019-04-07T11:59:51.275Z,41.3
2019-04-07T12:00:47.336Z,41.3
2019-04-07T12:01:32.805Z,41.2
2019-04-07T12:02:29.403Z,41.1
2019-04-07T12:03:13.206Z,41.1
2019-04-07T12:04:06.795Z,41
2019-04-07T12:06:28.659Z,40.9
2019-04-07T12:07:05.163Z,40.8
2019-04-07T12:08:04.955Z,40.8
2019-04-07T12:08:46.740Z,40.7
2019-04-07T12:09:35.988Z,40.7
2019-04-07T12:10:24.432Z,40.7
2019-04-07T12:11:19.727Z,40.6
2019-04-07T12:12:06.910Z,40.6
2019-04-07T12:12:55.982Z,40.5
2019-04-07T12:13:52.523Z,40.5
2019-04-07T12:14:36.084Z,40.4
2019-04-07T12:15:36.327Z,40.4
2019-04-07T12:16:15.656Z,40.3
2019-04-07T12:17:18.794Z,40.3
2019-04-07T12:17:56.651Z,40.3
2019-04-07T12:18:51.273Z,40.3
2019-04-07T12:19:37.660Z,40.2
2019-04-07T12:20:37.567Z,40.1
2019-04-07T12:21:38.573Z,40.1
2019-04-07T12:22:16.059Z,40.1
2019-04-07T12:22:58.184Z,40.1
2019-04-07T12:23:54.187Z,40
2019-04-07T12:24:51.194Z,40
2019-04-07T12:25:26.882Z,39.9
2019-04-07T12:26:17.134Z,39.9
2019-04-07T12:27:16.165Z,39.9
2019-04-07T12:27:57.924Z,39.9
2019-04-07T12:28:53.724Z,39.8
2019-04-07T12:29:36.310Z,39.8
2019-04-07T12:30:30.364Z,39.8
2019-04-07T12:31:19.083Z,39.8
2019-04-07T12:32:07.089Z,39.7
2019-04-07T12:32:57.507Z,39.7
2019-04-07T12:33:48.629Z,39.6
2019-04-07T12:34:37.023Z,39.6
2019-04-07T12:35:33.987Z,39.6
2019-04-07T12:36:23.454Z,39.6
2019-04-07T12:37:16.157Z,39.5
2019-04-07T12:38:02.584Z,39.5
2019-04-07T12:38:52.795Z,39.4
2019-04-07T12:39:42.736Z,39.4
2019-04-07T12:40:34.072Z,39.4
2019-04-07T12:41:37.920Z,39.4
2019-04-07T12:42:17.598Z,39.3
2019-04-07T12:42:59.746Z,39.3
2019-04-07T12:43:57.212Z,39.3
2019-04-07T12:44:38.230Z,39.3
2019-04-07T12:45:27.778Z,39.2
2019-04-07T12:46:19.901Z,39.1
2019-04-07T12:47:08.048Z,39.1
2019-04-07T12:47:58.327Z,39.1
2019-04-07T12:48:49.002Z,39
2019-04-07T12:49:50.682Z,39
2019-04-07T12:50:27.842Z,38.9
2019-04-07T12:51:24.653Z,38.9
2019-04-07T12:52:07.421Z,38.9
2019-04-07T12:53:05.092Z,38.9
2019-04-07T12:53:50.084Z,38.8
2019-04-07T12:54:47.589Z,38.8
2019-04-07T12:55:30.418Z,38.8
2019-04-07T12:56:19.652Z,38.7
2019-04-07T12:57:15.657Z,38.7
2019-04-07T12:57:59.799Z,38.6
2019-04-07T12:58:57.113Z,38.6
2019-04-07T12:59:41.132Z,38.6
2019-04-07T13:01:17.914Z,38.6
2019-04-07T13:01:45.785Z,38.5
2019-04-07T13:02:31.775Z,38.5
2019-04-07T13:03:21.133Z,38.4
2019-04-07T13:04:24.284Z,38.4
2019-04-07T13:05:09.149Z,38.4
2019-04-07T13:05:49.860Z,38.4
2019-04-07T13:06:49.060Z,38.3
2019-04-07T13:07:31.429Z,38.3
2019-04-07T13:08:26.359Z,38.3
2019-04-07T13:09:09.237Z,38.3
2019-04-07T13:10:08.541Z,38.3
2019-04-07T13:10:51.641Z,38.2
2019-04-07T13:11:58.809Z,38.1
2019-04-07T13:12:35.417Z,38.1
2019-04-07T13:13:20.077Z,38
2019-04-07T13:14:17.017Z,37.9
2019-04-07T13:14:58.948Z,37.8
2019-04-07T13:15:58.180Z,37.7
2019-04-07T13:16:40.821Z,37.6
2019-04-07T13:17:40.982Z,37.6
2019-04-07T13:18:20.306Z,37.6
2019-04-07T13:19:21.327Z,37.5
2019-04-07T13:20:04.048Z,37.5
2019-04-07T13:20:56.223Z,37.5
2019-04-07T13:21:41.088Z,37.4
2019-04-07T13:22:36.695Z,37.4
2019-04-07T13:23:23.346Z,37.4
2019-04-07T13:24:51.525Z,37.4
2019-04-07T13:25:24.206Z,37.3
2019-04-07T13:26:09.257Z,37.3
2019-04-07T13:27:05.713Z,37.3
2019-04-07T13:27:48.553Z,37.3
2019-04-07T13:28:37.658Z,37.3
2019-04-07T13:29:26.932Z,37.3
2019-04-07T13:30:17.043Z,37.2
2019-04-07T13:31:06.837Z,37.2
2019-04-07T13:32:01.925Z,37.3
2019-04-07T13:33:07.957Z,37.2
2019-04-07T13:33:40.164Z,37.2
2019-04-07T13:34:40.817Z,37.2
2019-04-07T13:35:13.616Z,37.2
2019-04-07T13:36:09.210Z,37.2
2019-04-07T13:37:02.143Z,37.1
2019-04-07T13:37:51.136Z,37.1
2019-04-07T13:38:37.124Z,36.9
2019-04-07T13:39:27.545Z,36.7
2019-04-07T13:40:22.768Z,36.4
2019-04-07T13:41:08.369Z,36.2
2019-04-07T13:42:05.810Z,35.9
2019-04-07T13:42:50.912Z,35.5
2019-04-07T13:43:44.740Z,35.1
2019-04-07T13:44:28.302Z,34.7
2019-04-07T13:45:25.245Z,34.3
2019-04-07T13:46:40.067Z,34
2019-04-07T13:46:59.058Z,33.6
2019-04-07T13:47:53.527Z,33.5
2019-04-07T13:48:38.946Z,33.3
2019-04-07T13:49:41.321Z,33
2019-04-07T13:50:20.207Z,32.8
2019-04-07T13:51:08.122Z,32.6
2019-04-07T13:53:04.048Z,32.4
2019-04-07T13:54:00.669Z,32.2
2019-04-07T13:54:36.077Z,32
2019-04-07T13:55:21.900Z,31.9
2019-04-07T13:56:15.481Z,31.9
2019-04-07T13:57:00.119Z,31.8
2019-04-07T13:57:48.265Z,31.8
2019-04-07T13:58:42.778Z,31.7
2019-04-07T13:59:30.403Z,31.7
2019-04-07T14:00:26.326Z,31.7
2019-04-07T14:01:10.603Z,31.7
2019-04-07T14:02:14.582Z,31.7
2019-04-07T14:02:50.595Z,31.8
2019-04-07T14:03:42.266Z,31.8
2019-04-07T14:04:45.623Z,31.8
2019-04-07T14:07:22.418Z,31.9
2019-04-07T14:08:05.876Z,32.1
2019-04-07T14:08:53.415Z,32.1
2019-04-07T14:09:46.346Z,32.2
2019-04-07T14:10:42.209Z,32.2
2019-04-07T14:11:26.432Z,32.3
2019-04-07T14:12:21.619Z,32.3
2019-04-07T14:13:11.940Z,32.3
2019-04-07T14:13:56.690Z,32.3
2019-04-07T14:14:46.143Z,32.3
2019-04-07T16:07:23.051Z,30.9
2019-04-07T16:08:05.219Z,31.1
2019-04-07T16:09:10.096Z,31.1
2019-04-07T16:10:12.170Z,31.3
2019-04-07T16:11:05.530Z,31.3
2019-04-07T16:12:04.261Z,31.4
2019-04-07T16:13:06.629Z,31.5
2019-04-07T16:13:36.377Z,31.6
2019-04-07T16:14:26.328Z,31.6
2019-04-07T16:15:20.880Z,31.7
2019-04-07T16:16:05.776Z,31.8
2019-04-07T16:17:12.041Z,31.8
2019-04-07T16:17:52.220Z,31.9
2019-04-07T16:18:39.960Z,31.9
2019-04-07T16:20:00.455Z,32
2019-04-07T16:20:51.186Z,32.2
2019-04-07T16:21:46.524Z,32.2
2019-04-07T16:22:31.468Z,32.3
2019-04-07T16:23:27.251Z,32.3
2019-04-07T16:24:11.428Z,32.4
2019-04-07T16:25:04.265Z,32.4
2019-04-07T16:25:49.753Z,32.5
2019-04-07T16:26:46.591Z,32.6
2019-04-07T16:27:39.661Z,32.6
2019-04-07T16:28:23.860Z,32.7
2019-04-07T16:29:20.287Z,32.8
2019-04-07T16:30:01.745Z,32.8
2019-04-07T16:30:57.178Z,32.9
2019-04-07T16:31:41.264Z,32.9
2019-04-07T16:32:35.454Z,33
2019-04-07T16:33:22.264Z,33.1
2019-04-07T16:34:17.523Z,33.1
2019-04-07T16:35:01.711Z,33.2
2019-04-07T16:36:03.268Z,33.3
2019-04-07T16:36:43.269Z,33.4
2019-04-07T16:37:39.038Z,33.4
2019-04-07T16:38:22.827Z,33.4
2019-04-07T16:39:15.714Z,33.6
2019-04-07T16:40:10.078Z,33.6
2019-04-07T16:40:53.833Z,33.7
2019-04-07T16:41:44.093Z,33.8
2019-04-07T16:42:33.100Z,33.8
2019-04-07T16:43:33.750Z,33.8
2019-04-07T16:44:18.029Z,33.9
2019-04-07T16:45:02.402Z,34
2019-04-07T16:45:56.980Z,34.1
2019-04-07T16:46:42.520Z,34.1